sensor_id;sensor_type;location;lat;lon;timestamp;P1;durP1;ratioP1;P2;durP2;ratioP2
23588;SDS011;11972;48.078;11.876;2024-03-23T00:55:31;3.55;;;1.70;;
23588;SDS011;11972;48.078;11.876;2024-03-23T00:59:31;2.60;;;1.77;;
23588;SDS011;11972;48.078;11.876;2024-03-23T01:03:32;2.75;;;1.73;;
23588;SDS011;11972;48.078;11.876;2024-03-23T01:07:32;2.78;;;1.70;;
23588;SDS011;11972;48.078;11.876;2024-03-23T01:11:32;2.88;;;1.92;;
23588;SDS011;11972;48.078;11.876;2024-03-23T01:15:33;1.60;;;1.50;;
23588;SDS011;11972;48.078;11.876;2024-03-23T01:19:33;2.80;;;1.67;;
23588;SDS011;11972;48.078;11.876;2024-03-23T01:23:33;3.45;;;1.70;;
23588;SDS011;11972;48.078;11.876;2024-03-23T01:27:34;1.75;;;1.30;;
23588;SDS011;11972;48.078;11.876;2024-03-23T01:31:34;1.42;;;1.33;;
23588;SDS011;11972;48.078;11.876;2024-03-23T01:35:35;2.15;;;1.40;;
23588;SDS011;11972;48.078;11.876;2024-03-23T01:39:35;2.45;;;1.58;;
23588;SDS011;11972;48.078;11.876;2024-03-23T01:43:35;1.98;;;1.50;;
23588;SDS011;11972;48.078;11.876;2024-03-23T01:47:35;1.42;;;1.33;;
23588;SDS011;11972;48.078;11.876;2024-03-23T01:51:36;1.75;;;1.23;;
23588;SDS011;11972;48.078;11.876;2024-03-23T01:55:37;2.10;;;1.75;;
23588;SDS011;11972;48.078;11.876;2024-03-23T01:59:39;2.03;;;1.40;;
23588;SDS011;11972;48.078;11.876;2024-03-23T02:03:39;3.63;;;1.25;;
23588;SDS011;11972;48.078;11.876;2024-03-23T02:07:40;2.90;;;1.73;;
23588;SDS011;11972;48.078;11.876;2024-03-23T02:11:41;2.40;;;1.40;;
23588;SDS011;11972;48.078;11.876;2024-03-23T02:15:42;1.77;;;1.23;;
23588;SDS011;11972;48.078;11.876;2024-03-23T02:19:42;2.25;;;1.00;;
23588;SDS011;11972;48.078;11.876;2024-03-23T02:23:42;2.83;;;1.40;;
23588;SDS011;11972;48.078;11.876;2024-03-23T02:27:43;1.45;;;1.35;;
23588;SDS011;11972;48.078;11.876;2024-03-23T02:31:43;2.00;;;1.38;;
23588;SDS011;11972;48.078;11.876;2024-03-23T02:35:43;1.88;;;1.40;;
23588;SDS011;11972;48.078;11.876;2024-03-23T02:39:45;2.42;;;1.30;;
23588;SDS011;11972;48.078;11.876;2024-03-23T02:43:45;1.50;;;1.40;;
23588;SDS011;11972;48.078;11.876;2024-03-23T02:47:45;1.30;;;1.20;;
23588;SDS011;11972;48.078;11.876;2024-03-23T02:51:46;1.98;;;1.27;;
23588;SDS011;11972;48.078;11.876;2024-03-23T02:55:48;2.63;;;1.30;;
23588;SDS011;11972;48.078;11.876;2024-03-23T02:59:48;1.92;;;1.15;;
23588;SDS011;11972;48.078;11.876;2024-03-23T03:03:49;3.13;;;1.25;;
23588;SDS011;11972;48.078;11.876;2024-03-23T03:07:49;3.40;;;1.10;;
23588;SDS011;11972;48.078;11.876;2024-03-23T03:11:49;2.03;;;1.40;;
23588;SDS011;11972;48.078;11.876;2024-03-23T03:15:50;0.90;;;0.90;;
23588;SDS011;11972;48.078;11.876;2024-03-23T03:19:50;1.20;;;1.05;;
23588;SDS011;11972;48.078;11.876;2024-03-23T03:23:55;1.00;;;0.90;;
23588;SDS011;11972;48.078;11.876;2024-03-23T03:27:56;1.92;;;1.20;;
23588;SDS011;11972;48.078;11.876;2024-03-23T03:31:57;2.47;;;1.10;;
23588;SDS011;11972;48.078;11.876;2024-03-23T03:35:57;1.17;;;1.08;;
23588;SDS011;11972;48.078;11.876;2024-03-23T03:39:57;1.80;;;1.00;;
23588;SDS011;11972;48.078;11.876;2024-03-23T03:43:58;1.30;;;0.90;;
23588;SDS011;11972;48.078;11.876;2024-03-23T03:48:02;2.08;;;1.00;;
23588;SDS011;11972;48.078;11.876;2024-03-23T03:52:02;1.23;;;0.90;;
23588;SDS011;11972;48.078;11.876;2024-03-23T03:56:03;2.05;;;0.90;;
23588;SDS011;11972;48.078;11.876;2024-03-23T04:00:04;3.22;;;1.05;;
23588;SDS011;11972;48.078;11.876;2024-03-23T04:04:05;1.10;;;1.00;;
23588;SDS011;11972;48.078;11.876;2024-03-23T04:08:06;3.67;;;1.02;;
23588;SDS011;11972;48.078;11.876;2024-03-23T04:12:07;1.25;;;1.15;;
23588;SDS011;11972;48.078;11.876;2024-03-23T04:16:08;3.42;;;1.30;;
23588;SDS011;11972;48.078;11.876;2024-03-23T04:20:09;1.65;;;1.02;;
23588;SDS011;11972;48.078;11.876;2024-03-23T04:24:11;2.55;;;1.10;;
23588;SDS011;11972;48.078;11.876;2024-03-23T04:28:11;0.80;;;0.80;;
23588;SDS011;11972;48.078;11.876;2024-03-23T04:32:11;1.83;;;1.00;;
23588;SDS011;11972;48.078;11.876;2024-03-23T04:36:12;2.70;;;1.00;;
23588;SDS011;11972;48.078;11.876;2024-03-23T04:40:12;2.45;;;0.80;;
23588;SDS011;11972;48.078;11.876;2024-03-23T04:44:13;1.25;;;1.15;;
23588;SDS011;11972;48.078;11.876;2024-03-23T04:48:14;1.50;;;0.93;;
23588;SDS011;11972;48.078;11.876;2024-03-23T04:52:14;0.90;;;0.70;;
23588;SDS011;11972;48.078;11.876;2024-03-23T04:56:15;2.25;;;1.00;;
23588;SDS011;11972;48.078;11.876;2024-03-23T05:00:17;1.75;;;0.80;;
23588;SDS011;11972;48.078;11.876;2024-03-23T05:04:17;1.00;;;0.90;;
23588;SDS011;11972;48.078;11.876;2024-03-23T05:08:18;1.85;;;0.80;;
23588;SDS011;11972;48.078;11.876;2024-03-23T05:12:18;1.90;;;0.93;;
23588;SDS011;11972;48.078;11.876;2024-03-23T05:16:18;4.00;;;1.20;;
23588;SDS011;11972;48.078;11.876;2024-03-23T05:20:18;0.98;;;0.65;;
23588;SDS011;11972;48.078;11.876;2024-03-23T05:24:19;2.47;;;0.77;;
23588;SDS011;11972;48.078;11.876;2024-03-23T05:28:19;0.60;;;0.60;;
23588;SDS011;11972;48.078;11.876;2024-03-23T05:32:20;1.40;;;1.30;;
23588;SDS011;11972;48.078;11.876;2024-03-23T05:36:20;1.35;;;0.88;;
23588;SDS011;11972;48.078;11.876;2024-03-23T05:40:21;0.93;;;0.82;;
23588;SDS011;11972;48.078;11.876;2024-03-23T05:44:22;2.05;;;0.80;;
23588;SDS011;11972;48.078;11.876;2024-03-23T05:48:22;1.15;;;0.90;;
23588;SDS011;11972;48.078;11.876;2024-03-23T05:52:23;1.98;;;0.80;;
23588;SDS011;11972;48.078;11.876;2024-03-23T05:56:25;1.15;;;1.05;;
23588;SDS011;11972;48.078;11.876;2024-03-23T06:00:28;0.75;;;0.63;;
23588;SDS011;11972;48.078;11.876;2024-03-23T06:04:28;1.55;;;0.70;;
23588;SDS011;11972;48.078;11.876;2024-03-23T06:08:29;0.85;;;0.60;;
23588;SDS011;11972;48.078;11.876;2024-03-23T06:12:29;1.60;;;0.70;;
23588;SDS011;11972;48.078;11.876;2024-03-23T06:16:29;1.70;;;1.13;;
23588;SDS011;11972;48.078;11.876;2024-03-23T06:20:30;1.33;;;0.93;;
23588;SDS011;11972;48.078;11.876;2024-03-23T06:24:31;1.65;;;0.68;;
23588;SDS011;11972;48.078;11.876;2024-03-23T06:28:31;0.73;;;0.50;;
23588;SDS011;11972;48.078;11.876;2024-03-23T06:32:32;0.70;;;0.70;;
23588;SDS011;11972;48.078;11.876;2024-03-23T06:36:32;1.08;;;0.43;;
23588;SDS011;11972;48.078;11.876;2024-03-23T06:40:32;1.50;;;0.50;;
23588;SDS011;11972;48.078;11.876;2024-03-23T06:44:33;0.50;;;0.47;;
23588;SDS011;11972;48.078;11.876;2024-03-23T06:48:33;0.55;;;0.52;;
23588;SDS011;11972;48.078;11.876;2024-03-23T06:52:33;1.43;;;0.50;;
23588;SDS011;11972;48.078;11.876;2024-03-23T06:56:34;0.90;;;0.60;;
23588;SDS011;11972;48.078;11.876;2024-03-23T07:00:34;1.17;;;0.60;;
23588;SDS011;11972;48.078;11.876;2024-03-23T07:04:35;0.93;;;0.50;;
23588;SDS011;11972;48.078;11.876;2024-03-23T07:08:36;1.27;;;0.52;;
23588;SDS011;11972;48.078;11.876;2024-03-23T07:12:36;0.77;;;0.30;;
23588;SDS011;11972;48.078;11.876;2024-03-23T07:16:37;0.30;;;0.30;;
23588;SDS011;11972;48.078;11.876;2024-03-23T07:20:37;2.05;;;0.50;;
23588;SDS011;11972;48.078;11.876;2024-03-23T07:24:38;0.87;;;0.50;;
23588;SDS011;11972;48.078;11.876;2024-03-23T07:28:39;1.02;;;0.50;;
23588;SDS011;11972;48.078;11.876;2024-03-23T07:32:44;1.42;;;0.57;;
23588;SDS011;11972;48.078;11.876;2024-03-23T07:36:44;0.90;;;0.60;;
23588;SDS011;11972;48.078;11.876;2024-03-23T07:40:45;1.73;;;0.70;;
23588;SDS011;11972;48.078;11.876;2024-03-23T07:44:45;0.70;;;0.60;;
23588;SDS011;11972;48.078;11.876;2024-03-23T07:48:47;1.10;;;0.50;;
23588;SDS011;11972;48.078;11.876;2024-03-23T07:52:49;2.47;;;0.50;;
23588;SDS011;11972;48.078;11.876;2024-03-23T07:56:49;1.40;;;0.70;;
23588;SDS011;11972;48.078;11.876;2024-03-23T08:00:50;1.65;;;0.60;;
23588;SDS011;11972;48.078;11.876;2024-03-23T08:04:50;3.80;;;0.82;;
23588;SDS011;11972;48.078;11.876;2024-03-23T08:08:52;1.17;;;0.50;;
23588;SDS011;11972;48.078;11.876;2024-03-23T08:13:00;1.02;;;0.70;;
23588;SDS011;11972;48.078;11.876;2024-03-23T08:17:00;0.70;;;0.70;;
23588;SDS011;11972;48.078;11.876;2024-03-23T08:21:01;2.00;;;1.05;;
23588;SDS011;11972;48.078;11.876;2024-03-23T08:25:03;0.60;;;0.60;;
23588;SDS011;11972;48.078;11.876;2024-03-23T08:29:03;0.70;;;0.50;;
23588;SDS011;11972;48.078;11.876;2024-03-23T08:33:04;0.60;;;0.60;;
23588;SDS011;11972;48.078;11.876;2024-03-23T08:37:04;0.77;;;0.70;;
23588;SDS011;11972;48.078;11.876;2024-03-23T08:41:05;3.03;;;0.98;;
23588;SDS011;11972;48.078;11.876;2024-03-23T08:45:09;1.52;;;1.30;;
23588;SDS011;11972;48.078;11.876;2024-03-23T08:49:10;1.30;;;1.17;;
23588;SDS011;11972;48.078;11.876;2024-03-23T08:53:11;2.03;;;1.48;;
23588;SDS011;11972;48.078;11.876;2024-03-23T08:57:11;2.37;;;1.40;;
23588;SDS011;11972;48.078;11.876;2024-03-23T09:01:12;2.30;;;1.80;;
23588;SDS011;11972;48.078;11.876;2024-03-23T09:05:13;1.88;;;1.60;;
23588;SDS011;11972;48.078;11.876;2024-03-23T09:09:13;1.90;;;1.70;;
23588;SDS011;11972;48.078;11.876;2024-03-23T09:13:14;2.65;;;2.05;;
23588;SDS011;11972;48.078;11.876;2024-03-23T09:17:14;2.20;;;2.00;;
23588;SDS011;11972;48.078;11.876;2024-03-23T09:21:14;2.58;;;2.08;;
23588;SDS011;11972;48.078;11.876;2024-03-23T09:25:15;2.50;;;2.30;;
23588;SDS011;11972;48.078;11.876;2024-03-23T09:29:15;2.80;;;2.60;;
23588;SDS011;11972;48.078;11.876;2024-03-23T09:33:16;3.17;;;2.88;;
23588;SDS011;11972;48.078;11.876;2024-03-23T09:37:16;2.67;;;2.47;;
23588;SDS011;11972;48.078;11.876;2024-03-23T09:41:16;4.50;;;2.78;;
23588;SDS011;11972;48.078;11.876;2024-03-23T09:45:17;4.13;;;2.65;;
23588;SDS011;11972;48.078;11.876;2024-03-23T09:49:21;2.95;;;2.45;;
23588;SDS011;11972;48.078;11.876;2024-03-23T09:53:22;4.85;;;2.80;;
23588;SDS011;11972;48.078;11.876;2024-03-23T09:57:22;3.10;;;2.63;;
23588;SDS011;11972;48.078;11.876;2024-03-23T10:01:23;4.07;;;2.78;;
23588;SDS011;11972;48.078;11.876;2024-03-23T10:05:23;3.95;;;2.10;;
23588;SDS011;11972;48.078;11.876;2024-03-23T10:09:24;1.30;;;1.20;;
23588;SDS011;11972;48.078;11.876;2024-03-23T10:13:26;2.13;;;1.30;;
23588;SDS011;11972;48.078;11.876;2024-03-23T10:17:29;2.05;;;0.85;;
23588;SDS011;11972;48.078;11.876;2024-03-23T10:21:29;0.98;;;0.82;;
23588;SDS011;11972;48.078;11.876;2024-03-23T10:25:29;1.15;;;0.77;;
23588;SDS011;11972;48.078;11.876;2024-03-23T10:29:30;1.67;;;1.02;;
23588;SDS011;11972;48.078;11.876;2024-03-23T10:33:30;0.90;;;0.50;;
23588;SDS011;11972;48.078;11.876;2024-03-23T10:37:31;1.85;;;0.80;;
23588;SDS011;11972;48.078;11.876;2024-03-23T10:41:31;1.10;;;0.60;;
23588;SDS011;11972;48.078;11.876;2024-03-23T10:45:32;0.90;;;0.70;;
23588;SDS011;11972;48.078;11.876;2024-03-23T10:49:33;3.55;;;0.55;;
23588;SDS011;11972;48.078;11.876;2024-03-23T10:53:34;0.60;;;0.60;;
23588;SDS011;11972;48.078;11.876;2024-03-23T10:57:55;0.60;;;0.60;;
23588;SDS011;11972;48.078;11.876;2024-03-23T11:01:59;1.02;;;0.60;;
23588;SDS011;11972;48.078;11.876;2024-03-23T11:06:03;1.10;;;0.73;;
23588;SDS011;11972;48.078;11.876;2024-03-23T11:10:05;0.98;;;0.50;;
23588;SDS011;11972;48.078;11.876;2024-03-23T11:14:25;0.80;;;0.40;;
23588;SDS011;11972;48.078;11.876;2024-03-23T11:18:25;0.52;;;0.32;;
23588;SDS011;11972;48.078;11.876;2024-03-23T11:26:41;1.58;;;0.40;;
23588;SDS011;11972;48.078;11.876;2024-03-23T11:30:41;0.85;;;0.50;;
23588;SDS011;11972;48.078;11.876;2024-03-23T11:34:42;0.40;;;0.30;;
23588;SDS011;11972;48.078;11.876;2024-03-23T11:38:43;0.65;;;0.40;;
23588;SDS011;11972;48.078;11.876;2024-03-23T11:42:43;0.85;;;0.40;;
23588;SDS011;11972;48.078;11.876;2024-03-23T11:46:43;1.55;;;0.40;;
23588;SDS011;11972;48.078;11.876;2024-03-23T11:50:45;1.38;;;0.60;;
23588;SDS011;11972;48.078;11.876;2024-03-23T11:54:46;0.50;;;0.50;;
23588;SDS011;11972;48.078;11.876;2024-03-23T11:58:47;0.95;;;0.60;;
23588;SDS011;11972;48.078;11.876;2024-03-23T12:02:49;1.25;;;0.50;;
23588;SDS011;11972;48.078;11.876;2024-03-23T12:06:49;0.60;;;0.50;;
23588;SDS011;11972;48.078;11.876;2024-03-23T12:10:50;0.63;;;0.52;;
23588;SDS011;11972;48.078;11.876;2024-03-23T12:15:06;1.75;;;0.60;;
23588;SDS011;11972;48.078;11.876;2024-03-23T12:19:08;0.68;;;0.68;;
23588;SDS011;11972;48.078;11.876;2024-03-23T12:23:09;1.65;;;0.77;;
23588;SDS011;11972;48.078;11.876;2024-03-23T12:27:11;2.42;;;0.73;;
23588;SDS011;11972;48.078;11.876;2024-03-23T12:31:12;1.83;;;0.65;;
23588;SDS011;11972;48.078;11.876;2024-03-23T12:35:12;1.23;;;0.70;;
23588;SDS011;11972;48.078;11.876;2024-03-23T12:39:13;1.80;;;0.70;;
23588;SDS011;11972;48.078;11.876;2024-03-23T12:43:13;4.22;;;1.45;;
23588;SDS011;11972;48.078;11.876;2024-03-23T12:47:14;1.80;;;1.70;;
23588;SDS011;11972;48.078;11.876;2024-03-23T12:51:14;2.42;;;1.63;;
23588;SDS011;11972;48.078;11.876;2024-03-23T12:55:15;2.15;;;1.75;;
23588;SDS011;11972;48.078;11.876;2024-03-23T12:59:15;3.05;;;1.60;;
23588;SDS011;11972;48.078;11.876;2024-03-23T13:03:16;2.83;;;1.50;;
23588;SDS011;11972;48.078;11.876;2024-03-23T13:07:17;4.30;;;1.95;;
23588;SDS011;11972;48.078;11.876;2024-03-23T13:11:18;2.10;;;1.63;;
23588;SDS011;11972;48.078;11.876;2024-03-23T13:15:19;2.88;;;2.00;;
23588;SDS011;11972;48.078;11.876;2024-03-23T13:19:20;2.33;;;1.60;;
23588;SDS011;11972;48.078;11.876;2024-03-23T13:23:23;3.88;;;1.50;;
23588;SDS011;11972;48.078;11.876;2024-03-23T13:27:24;1.73;;;1.25;;
23588;SDS011;11972;48.078;11.876;2024-03-23T13:31:24;3.03;;;1.40;;
23588;SDS011;11972;48.078;11.876;2024-03-23T13:35:25;2.95;;;1.65;;
23588;SDS011;11972;48.078;11.876;2024-03-23T13:39:25;2.53;;;1.73;;
23588;SDS011;11972;48.078;11.876;2024-03-23T13:43:27;4.35;;;1.60;;
23588;SDS011;11972;48.078;11.876;2024-03-23T13:47:30;3.72;;;1.40;;
23588;SDS011;11972;48.078;11.876;2024-03-23T13:51:31;2.42;;;1.50;;
23588;SDS011;11972;48.078;11.876;2024-03-23T13:55:31;5.35;;;2.67;;
23588;SDS011;11972;48.078;11.876;2024-03-23T13:59:32;3.25;;;0.95;;
23588;SDS011;11972;48.078;11.876;2024-03-23T14:03:32;2.22;;;1.10;;
23588;SDS011;11972;48.078;11.876;2024-03-23T14:07:32;3.33;;;1.50;;
23588;SDS011;11972;48.078;11.876;2024-03-23T14:11:33;3.13;;;1.83;;
23588;SDS011;11972;48.078;11.876;2024-03-23T14:15:33;5.45;;;1.90;;
23588;SDS011;11972;48.078;11.876;2024-03-23T14:19:33;4.43;;;2.20;;
23588;SDS011;11972;48.078;11.876;2024-03-23T14:23:34;3.92;;;1.73;;
23588;SDS011;11972;48.078;11.876;2024-03-23T14:27:34;7.57;;;3.58;;
23588;SDS011;11972;48.078;11.876;2024-03-23T14:31:38;4.03;;;2.80;;
23588;SDS011;11972;48.078;11.876;2024-03-23T14:35:38;3.60;;;2.60;;
23588;SDS011;11972;48.078;11.876;2024-03-23T14:39:40;7.30;;;3.03;;
23588;SDS011;11972;48.078;11.876;2024-03-23T14:43:41;6.03;;;3.13;;
23588;SDS011;11972;48.078;11.876;2024-03-23T14:47:44;6.88;;;3.03;;
23588;SDS011;11972;48.078;11.876;2024-03-23T14:51:45;4.50;;;2.97;;
23588;SDS011;11972;48.078;11.876;2024-03-23T14:55:46;10.40;;;4.20;;
23588;SDS011;11972;48.078;11.876;2024-03-23T14:59:49;12.45;;;5.30;;
23588;SDS011;11972;48.078;11.876;2024-03-23T15:03:49;7.22;;;3.78;;
23588;SDS011;11972;48.078;11.876;2024-03-23T15:07:53;9.65;;;3.90;;
23588;SDS011;11972;48.078;11.876;2024-03-23T15:11:53;6.53;;;3.53;;
23588;SDS011;11972;48.078;11.876;2024-03-23T15:15:56;6.95;;;3.35;;
23588;SDS011;11972;48.078;11.876;2024-03-23T15:19:57;5.35;;;2.40;;
23588;SDS011;11972;48.078;11.876;2024-03-23T15:24:15;4.03;;;2.38;;
23588;SDS011;11972;48.078;11.876;2024-03-23T15:28:15;8.00;;;2.60;;
23588;SDS011;11972;48.078;11.876;2024-03-23T15:32:16;5.72;;;2.75;;
23588;SDS011;11972;48.078;11.876;2024-03-23T15:36:18;4.95;;;2.42;;
23588;SDS011;11972;48.078;11.876;2024-03-23T15:40:18;10.27;;;2.55;;
23588;SDS011;11972;48.078;11.876;2024-03-23T15:44:18;3.38;;;2.03;;
23588;SDS011;11972;48.078;11.876;2024-03-23T15:48:19;5.85;;;2.80;;
23588;SDS011;11972;48.078;11.876;2024-03-23T15:52:19;5.05;;;2.83;;
23588;SDS011;11972;48.078;11.876;2024-03-23T15:56:19;6.65;;;2.25;;
23588;SDS011;11972;48.078;11.876;2024-03-23T16:00:20;3.92;;;2.50;;
23588;SDS011;11972;48.078;11.876;2024-03-23T16:04:20;6.30;;;2.60;;
23588;SDS011;11972;48.078;11.876;2024-03-23T16:08:20;5.05;;;3.28;;
23588;SDS011;11972;48.078;11.876;2024-03-23T16:12:21;8.98;;;3.97;;
23588;SDS011;11972;48.078;11.876;2024-03-23T16:16:22;4.65;;;2.67;;
23588;SDS011;11972;48.078;11.876;2024-03-23T16:20:23;4.38;;;2.67;;
23588;SDS011;11972;48.078;11.876;2024-03-23T16:24:23;7.68;;;2.47;;
23588;SDS011;11972;48.078;11.876;2024-03-23T16:28:36;3.78;;;2.47;;
23588;SDS011;11972;48.078;11.876;2024-03-23T16:32:37;4.25;;;2.35;;
23588;SDS011;11972;48.078;11.876;2024-03-23T16:36:39;9.50;;;2.40;;
23588;SDS011;11972;48.078;11.876;2024-03-23T16:40:39;4.63;;;2.30;;
23588;SDS011;11972;48.078;11.876;2024-03-23T16:44:40;3.85;;;1.60;;
23588;SDS011;11972;48.078;11.876;2024-03-23T16:48:40;3.45;;;1.60;;
23588;SDS011;11972;48.078;11.876;2024-03-23T16:52:41;4.22;;;1.80;;
23588;SDS011;11972;48.078;11.876;2024-03-23T16:56:42;5.13;;;1.92;;
23588;SDS011;11972;48.078;11.876;2024-03-23T17:00:42;7.68;;;4.55;;
23588;SDS011;11972;48.078;11.876;2024-03-23T17:04:42;3.97;;;2.20;;
23588;SDS011;11972;48.078;11.876;2024-03-23T17:08:43;3.83;;;2.00;;
23588;SDS011;11972;48.078;11.876;2024-03-23T17:12:50;4.78;;;2.17;;
23588;SDS011;11972;48.078;11.876;2024-03-23T17:16:50;4.18;;;2.10;;
23588;SDS011;11972;48.078;11.876;2024-03-23T17:20:51;3.97;;;2.20;;
23588;SDS011;11972;48.078;11.876;2024-03-23T17:24:52;4.35;;;2.30;;
23588;SDS011;11972;48.078;11.876;2024-03-23T17:28:53;5.40;;;2.50;;
23588;SDS011;11972;48.078;11.876;2024-03-23T17:32:53;3.53;;;2.10;;
23588;SDS011;11972;48.078;11.876;2024-03-23T17:36:54;5.72;;;2.58;;
23588;SDS011;11972;48.078;11.876;2024-03-23T17:40:57;4.50;;;1.80;;
23588;SDS011;11972;48.078;11.876;2024-03-23T17:44:57;3.53;;;2.75;;
23588;SDS011;11972;48.078;11.876;2024-03-23T17:48:58;2.88;;;1.40;;
23588;SDS011;11972;48.078;11.876;2024-03-23T17:52:59;3.50;;;1.65;;
23588;SDS011;11972;48.078;11.876;2024-03-23T17:57:00;1.90;;;1.13;;
23588;SDS011;11972;48.078;11.876;2024-03-23T18:01:07;2.45;;;0.90;;
23588;SDS011;11972;48.078;11.876;2024-03-23T18:05:08;1.25;;;1.00;;
23588;SDS011;11972;48.078;11.876;2024-03-23T18:09:08;2.22;;;0.70;;
23588;SDS011;11972;48.078;11.876;2024-03-23T18:13:10;1.83;;;0.77;;
23588;SDS011;11972;48.078;11.876;2024-03-23T18:17:10;2.47;;;0.80;;
23588;SDS011;11972;48.078;11.876;2024-03-23T18:21:11;1.15;;;0.77;;
23588;SDS011;11972;48.078;11.876;2024-03-23T18:25:11;2.63;;;0.70;;
23588;SDS011;11972;48.078;11.876;2024-03-23T18:29:11;3.75;;;0.57;;
23588;SDS011;11972;48.078;11.876;2024-03-23T18:33:13;1.73;;;0.70;;
23588;SDS011;11972;48.078;11.876;2024-03-23T18:37:13;1.15;;;0.65;;
23588;SDS011;11972;48.078;11.876;2024-03-23T18:41:14;2.45;;;0.65;;
23588;SDS011;11972;48.078;11.876;2024-03-23T18:45:14;3.35;;;1.30;;
23588;SDS011;11972;48.078;11.876;2024-03-23T18:49:14;1.98;;;1.10;;
23588;SDS011;11972;48.078;11.876;2024-03-23T18:53:15;2.70;;;1.40;;
23588;SDS011;11972;48.078;11.876;2024-03-23T18:57:15;2.13;;;1.15;;
23588;SDS011;11972;48.078;11.876;2024-03-23T19:01:16;3.42;;;1.20;;
23588;SDS011;11972;48.078;11.876;2024-03-23T19:05:18;3.65;;;1.30;;
23588;SDS011;11972;48.078;11.876;2024-03-23T19:09:18;4.53;;;1.10;;
23588;SDS011;11972;48.078;11.876;2024-03-23T19:13:19;4.32;;;1.60;;
23588;SDS011;11972;48.078;11.876;2024-03-23T19:17:19;2.40;;;1.90;;
23588;SDS011;11972;48.078;11.876;2024-03-23T19:21:21;4.70;;;1.63;;
23588;SDS011;11972;48.078;11.876;2024-03-23T19:25:21;3.00;;;1.50;;
23588;SDS011;11972;48.078;11.876;2024-03-23T19:29:25;2.78;;;1.50;;
23588;SDS011;11972;48.078;11.876;2024-03-23T19:33:25;2.58;;;1.45;;
23588;SDS011;11972;48.078;11.876;2024-03-23T19:37:25;1.58;;;1.00;;
23588;SDS011;11972;48.078;11.876;2024-03-23T19:41:26;1.90;;;1.00;;
23588;SDS011;11972;48.078;11.876;2024-03-23T19:45:26;1.92;;;1.05;;
23588;SDS011;11972;48.078;11.876;2024-03-23T19:49:26;2.38;;;1.13;;
23588;SDS011;11972;48.078;11.876;2024-03-23T19:53:27;2.40;;;1.30;;
23588;SDS011;11972;48.078;11.876;2024-03-23T19:57:28;2.92;;;1.25;;
23588;SDS011;11972;48.078;11.876;2024-03-23T20:01:28;2.65;;;1.10;;
23588;SDS011;11972;48.078;11.876;2024-03-23T20:05:29;3.08;;;1.23;;
23588;SDS011;11972;48.078;11.876;2024-03-23T20:09:29;4.18;;;1.10;;
23588;SDS011;11972;48.078;11.876;2024-03-23T20:13:31;2.42;;;1.00;;
23588;SDS011;11972;48.078;11.876;2024-03-23T20:17:32;3.38;;;1.02;;
23588;SDS011;11972;48.078;11.876;2024-03-23T20:21:32;3.22;;;0.90;;
23588;SDS011;11972;48.078;11.876;2024-03-23T20:25:33;2.58;;;1.00;;
23588;SDS011;11972;48.078;11.876;2024-03-23T20:29:33;0.93;;;0.80;;
23588;SDS011;11972;48.078;11.876;2024-03-23T20:33:34;2.92;;;0.68;;
23588;SDS011;11972;48.078;11.876;2024-03-23T20:37:37;1.63;;;0.80;;
23588;SDS011;11972;48.078;11.876;2024-03-23T20:41:38;1.80;;;0.88;;
23588;SDS011;11972;48.078;11.876;2024-03-23T20:45:38;2.28;;;0.82;;
23588;SDS011;11972;48.078;11.876;2024-03-23T20:49:40;1.52;;;0.80;;
23588;SDS011;11972;48.078;11.876;2024-03-23T20:53:40;2.25;;;0.73;;
23588;SDS011;11972;48.078;11.876;2024-03-23T20:57:41;1.92;;;0.77;;
23588;SDS011;11972;48.078;11.876;2024-03-23T21:01:41;1.33;;;0.63;;
23588;SDS011;11972;48.078;11.876;2024-03-23T21:05:42;2.08;;;0.80;;
23588;SDS011;11972;48.078;11.876;2024-03-23T21:09:44;1.90;;;0.65;;
23588;SDS011;11972;48.078;11.876;2024-03-23T21:13:45;3.35;;;0.73;;
23588;SDS011;11972;48.078;11.876;2024-03-23T21:17:48;2.80;;;0.68;;
23588;SDS011;11972;48.078;11.876;2024-03-23T21:21:48;1.95;;;0.60;;
23588;SDS011;11972;48.078;11.876;2024-03-23T21:25:58;2.00;;;0.60;;
23588;SDS011;11972;48.078;11.876;2024-03-23T21:29:59;1.08;;;0.70;;
23588;SDS011;11972;48.078;11.876;2024-03-23T21:34:00;1.27;;;0.70;;
23588;SDS011;11972;48.078;11.876;2024-03-23T21:38:01;3.03;;;0.63;;
23588;SDS011;11972;48.078;11.876;2024-03-23T21:42:02;2.05;;;0.80;;
23588;SDS011;11972;48.078;11.876;2024-03-23T21:46:03;3.08;;;1.10;;
23588;SDS011;11972;48.078;11.876;2024-03-23T21:50:04;2.08;;;0.65;;
23588;SDS011;11972;48.078;11.876;2024-03-23T21:54:06;2.70;;;0.80;;
23588;SDS011;11972;48.078;11.876;2024-03-23T21:58:06;2.30;;;1.02;;
23588;SDS011;11972;48.078;11.876;2024-03-23T22:02:07;0.88;;;0.60;;
23588;SDS011;11972;48.078;11.876;2024-03-23T22:06:08;0.80;;;0.50;;
23588;SDS011;11972;48.078;11.876;2024-03-23T22:10:11;1.00;;;0.60;;
23588;SDS011;11972;48.078;11.876;2024-03-23T22:14:11;0.52;;;0.40;;
23588;SDS011;11972;48.078;11.876;2024-03-23T22:18:12;1.30;;;0.50;;
23588;SDS011;11972;48.078;11.876;2024-03-23T22:22:13;2.92;;;0.93;;
23588;SDS011;11972;48.078;11.876;2024-03-23T22:26:14;1.83;;;0.60;;
23588;SDS011;11972;48.078;11.876;2024-03-23T22:30:14;2.45;;;0.70;;
23588;SDS011;11972;48.078;11.876;2024-03-23T22:34:15;0.80;;;0.40;;
23588;SDS011;11972;48.078;11.876;2024-03-23T22:38:15;0.95;;;0.40;;
23588;SDS011;11972;48.078;11.876;2024-03-23T22:42:16;2.03;;;0.50;;
23588;SDS011;11972;48.078;11.876;2024-03-23T22:46:16;1.73;;;0.40;;
23588;SDS011;11972;48.078;11.876;2024-03-23T22:50:17;1.48;;;0.52;;
23588;SDS011;11972;48.078;11.876;2024-03-23T22:54:17;1.10;;;0.50;;
23588;SDS011;11972;48.078;11.876;2024-03-23T22:58:18;1.85;;;0.40;;
23588;SDS011;11972;48.078;11.876;2024-03-23T23:02:19;2.78;;;0.57;;
23588;SDS011;11972;48.078;11.876;2024-03-23T23:06:21;1.05;;;0.32;;
23588;SDS011;11972;48.078;11.876;2024-03-23T23:10:22;3.40;;;0.50;;
23588;SDS011;11972;48.078;11.876;2024-03-23T23:14:22;1.02;;;0.40;;
23588;SDS011;11972;48.078;11.876;2024-03-23T23:18:23;2.33;;;0.55;;
23588;SDS011;11972;48.078;11.876;2024-03-23T23:22:26;1.45;;;0.50;;
23588;SDS011;11972;48.078;11.876;2024-03-23T23:26:27;1.58;;;0.40;;
23588;SDS011;11972;48.078;11.876;2024-03-23T23:30:27;0.52;;;0.40;;
23588;SDS011;11972;48.078;11.876;2024-03-23T23:34:27;0.73;;;0.40;;
23588;SDS011;11972;48.078;11.876;2024-03-23T23:38:28;1.27;;;0.50;;
23588;SDS011;11972;48.078;11.876;2024-03-23T23:42:28;0.30;;;0.30;;
23588;SDS011;11972;48.078;11.876;2024-03-23T23:46:28;0.77;;;0.50;;
23588;SDS011;11972;48.078;11.876;2024-03-23T23:50:29;1.33;;;0.50;;
23588;SDS011;11972;48.078;11.876;2024-03-23T23:54:29;0.32;;;0.32;;
23588;SDS011;11972;48.078;11.876;2024-03-23T23:58:30;1.15;;;0.40;;
